Time;durP1;ratioP1;P1;durP2;ratioP2;P2;SDS_P1;SDS_P2;PMS_P1;PMS_P2;Temp;Humidity;BMP_temperature;BMP_pressure;BME280_temperature;BME280_humidity;BME280_pressure;Samples;Min_cycle;Max_cycle;Signal;HPM_P1;HPM_P2
2022/01/12 00:01:07;;;;;;;17.27;5.00;;;;;;;-3.98;81.41;146687.02;1721557;83;21061;-64
2022/01/12 00:03:34;;;;;;;17.00;5.30;;;;;;;-4.01;82.11;146679.28;1720558;83;21124;-64
2022/01/12 00:06:02;;;;;;;15.90;5.30;;;;;;;-4.04;82.73;146672.91;1722274;81;21562;-66
2022/01/12 00:08:31;;;;;;;8.47;3.73;;;;;;;-4.06;83.04;146666.47;1721285;82;21061;-66
2022/01/12 00:11:00;;;;;;;12.13;4.83;;;;;;;-4.08;83.61;146662.64;1721670;82;20986;-64
2022/01/12 00:13:28;;;;;;;11.23;3.97;;;;;;;-4.12;83.35;146652.34;1721507;83;21060;-65
2022/01/12 00:15:55;;;;;;;11.07;4.80;;;;;;;-4.14;84.08;146647.22;1731253;81;20933;-65
2022/01/12 00:18:22;;;;;;;15.80;5.43;;;;;;;-4.15;84.06;146644.66;1695938;83;21065;-66
2022/01/12 00:20:49;;;;;;;12.93;5.13;;;;;;;-4.17;84.15;146640.84;1751343;81;21461;-66
2022/01/12 00:23:17;;;;;;;13.10;4.90;;;;;;;-4.17;85.03;146639.53;1695558;83;21081;-66
2022/01/12 00:26:09;;;;;;;10.80;4.93;;;;;;;-4.19;84.11;146634.41;1755781;81;20989;-66
2022/01/12 00:33:44;;;;;;;10.97;4.80;;;;;;;-4.36;83.73;146593.37;1757309;81;21494;-67
2022/01/12 00:36:11;;;;;;;17.30;5.47;;;;;;;-4.40;84.30;146583.11;1723810;81;21173;-66
2022/01/12 00:38:38;;;;;;;13.70;5.23;;;;;;;-4.43;83.98;146575.44;1721132;83;22159;-65
2022/01/12 00:41:05;;;;;;;12.20;4.80;;;;;;;-4.46;84.24;146567.75;1721199;83;20910;-66
2022/01/12 00:43:34;;;;;;;12.37;5.63;;;;;;;-4.47;84.44;146565.19;1720986;82;21644;-66
2022/01/12 00:46:01;;;;;;;8.63;4.37;;;;;;;-4.49;84.59;146560.06;1746737;81;21130;-66
2022/01/12 00:48:27;;;;;;;15.33;5.90;;;;;;;-4.50;84.49;146558.75;1751369;81;21147;-64
2022/01/12 00:50:55;;;;;;;8.07;3.63;;;;;;;-4.52;84.02;146552.38;1751873;81;21001;-65
2022/01/12 00:53:22;;;;;;;10.37;5.33;;;;;;;-4.53;83.68;146551.06;1751314;81;21121;-66
2022/01/12 00:55:49;;;;;;;8.37;3.77;;;;;;;-4.53;83.82;146549.77;1750889;81;21111;-66
2022/01/12 00:58:16;;;;;;;17.23;5.17;;;;;;;-4.55;83.96;146545.94;1750680;81;21300;-66
2022/01/12 01:00:42;;;;;;;17.73;6.40;;;;;;;-4.56;84.18;146542.08;1751179;81;21054;-66
2022/01/12 01:03:10;;;;;;;12.20;4.87;;;;;;;-4.57;84.29;146540.83;1751009;81;20969;-66
2022/01/12 01:05:39;;;;;;;17.03;6.23;;;;;;;-4.57;84.46;146539.52;1731807;81;21044;-65
2022/01/12 01:08:08;;;;;;;10.17;5.13;;;;;;;-4.56;85.10;146542.08;1721817;83;21388;-64
2022/01/12 01:10:45;;;;;;;13.20;5.20;;;;;;;-4.58;85.02;146536.95;1721288;82;21642;-65
2022/01/12 01:13:07;;;;;;;17.60;5.53;;;;;;;-4.61;85.02;146531.83;1720652;81;20931;-65
2022/01/12 01:26:24;;;;;;;8.37;4.70;;;;;;;-4.68;84.43;146513.91;1722552;82;21033;-66
2022/01/12 01:28:50;;;;;;;13.03;5.20;;;;;;;-4.70;84.25;146508.78;1723137;83;20943;-65
2022/01/12 01:31:19;;;;;;;11.90;5.10;;;;;;;-4.71;84.20;146506.22;1722540;83;21121;-65
2022/01/12 01:33:46;;;;;;;10.37;4.63;;;;;;;-4.76;84.11;146493.36;1735610;82;21107;-65
2022/01/12 01:36:15;;;;;;;11.30;4.93;;;;;;;-4.79;84.10;146485.69;1748756;82;21120;-64
2022/01/12 01:38:43;;;;;;;11.30;5.70;;;;;;;-4.81;84.36;146481.86;1748061;82;21084;-65
2022/01/12 01:41:10;;;;;;;12.30;5.67;;;;;;;-4.81;84.83;146480.56;1747532;81;21007;-66
2022/01/12 01:43:54;;;;;;;11.67;4.73;;;;;;;-4.82;84.90;146478.00;1746015;82;22121;-66
2022/01/12 01:54:24;;;;;;;;;;;;;;;-4.92;84.56;146453.64;1671661;84;21525;-65
2022/01/12 01:56:51;;;;;;;14.83;4.87;;;;;;;-4.93;84.83;146452.39;1691520;84;20895;-65
2022/01/12 01:59:18;;;;;;;10.03;4.70;;;;;;;-4.93;84.79;146452.39;1693872;83;20989;-65
2022/01/12 02:01:45;;;;;;;16.57;5.30;;;;;;;-4.92;84.02;146453.64;1708768;83;21107;-66
2022/01/12 02:04:12;;;;;;;13.87;4.70;;;;;;;-4.92;83.48;146454.95;1755060;81;21076;-65
2022/01/12 02:06:39;;;;;;;10.70;5.00;;;;;;;-4.93;82.47;146452.39;1754642;81;21021;-66
2022/01/12 02:09:06;;;;;;;12.43;5.53;;;;;;;-4.92;82.31;146454.95;1754282;81;20934;-65
2022/01/12 02:11:39;;;;;;;7.87;4.23;;;;;;;-4.92;82.36;146453.64;1747935;82;21568;-66
2022/01/12 02:14:12;;;;;;;16.20;5.67;;;;;;;-4.95;82.45;146447.27;1748520;82;21177;-66
2022/01/12 02:16:50;;;;;;;15.93;5.97;;;;;;;-4.94;82.75;146449.83;1749032;82;20996;-64
2022/01/12 02:19:16;;;;;;;14.23;5.97;;;;;;;-4.95;82.34;146447.27;1746994;81;20973;-65
2022/01/12 02:35:44;;;;;;;13.67;4.83;;;;;;;-5.16;85.50;146393.44;1680091;84;21081;-64
2022/01/12 02:40:38;;;;;;;11.00;4.60;;;;;;;-5.23;87.43;146376.78;1707988;83;21505;-65
2022/01/12 02:43:14;;;;;;;10.90;4.70;;;;;;;-5.25;87.92;146372.91;1708568;83;21497;-65
2022/01/12 02:51:12;;;;;;;14.27;5.10;;;;;;;-5.31;89.19;146357.56;1709150;83;21029;-65
2022/01/12 02:53:41;;;;;;;12.43;6.57;;;;;;;-5.30;89.16;146360.13;1680302;83;21128;-65
2022/01/12 02:56:12;;;;;;;13.97;5.67;;;;;;;-5.30;88.92;146360.13;1709312;83;20854;-65
2022/01/12 02:58:39;;;;;;;10.70;4.73;;;;;;;-5.28;88.60;146363.97;1708130;82;21581;-64
2022/01/12 03:03:36;;;;;;;9.17;3.90;;;;;;;-5.28;87.57;146365.23;1708757;83;20971;-64
2022/01/12 03:06:05;;;;;;;11.30;4.97;;;;;;;-5.27;87.34;146367.80;1708616;82;21144;-65
2022/01/12 03:08:39;;;;;;;11.73;4.50;;;;;;;-5.26;87.21;146370.36;1708667;82;21122;-65
2022/01/12 03:11:07;;;;;;;9.03;4.67;;;;;;;-5.26;86.61;146370.36;1708668;83;21016;-64
2022/01/12 03:13:36;;;;;;;7.93;3.70;;;;;;;-5.26;85.70;146370.36;1708441;83;21591;-65
2022/01/12 03:16:15;;;;;;;9.90;4.50;;;;;;;-5.26;85.68;146370.36;1708630;82;21016;-65
2022/01/12 03:18:33;;;;;;;9.87;4.40;;;;;;;-5.25;85.25;146372.91;1703147;82;22097;-65
2022/01/12 03:21:02;;;;;;;10.43;4.83;;;;;;;-5.26;84.39;146370.36;1715199;83;21022;-65
2022/01/12 03:23:29;;;;;;;12.10;5.33;;;;;;;-5.27;84.37;146366.53;1715387;83;21016;-65
2022/01/12 03:25:55;;;;;;;7.87;3.90;;;;;;;-5.26;84.37;146369.09;1715308;83;21415;-65
2022/01/12 03:28:22;;;;;;;9.83;3.93;;;;;;;-5.29;83.71;146362.67;1701514;84;21083;-64
2022/01/12 03:31:05;;;;;;;9.53;3.60;;;;;;;-5.27;83.74;146367.80;1702593;84;21115;-65
2022/01/12 03:33:51;;;;;;;;;;;;;;;-5.28;83.15;146363.97;1703351;84;21083;-67
2022/01/12 04:05:11;;;;;;;11.07;4.00;;;;;;;-5.60;85.96;146285.84;1705777;83;20936;-65
2022/01/12 04:10:20;;;;;;;15.20;5.77;;;;;;;-5.76;85.78;146247.41;1701748;84;21593;-64
2022/01/12 04:12:47;;;;;;;11.77;4.90;;;;;;;-5.78;85.77;146242.28;1674406;85;21099;-66
2022/01/12 04:15:15;;;;;;;13.43;5.97;;;;;;;-5.81;85.33;146234.61;1673976;85;21055;-66
2022/01/12 04:17:43;;;;;;;13.63;5.10;;;;;;;-5.85;84.94;146223.06;1697802;84;21102;-65
2022/01/12 04:20:11;;;;;;;6.97;3.77;;;;;;;-5.90;85.09;146211.53;1706332;82;21124;-65
2022/01/12 04:25:25;;;;;;;13.27;5.57;;;;;;;-5.96;85.38;146196.17;1706837;84;21105;-60
2022/01/12 04:27:52;;;;;;;11.10;4.67;;;;;;;-5.98;85.47;146191.06;1681962;84;21077;-60
2022/01/12 04:30:19;;;;;;;9.60;4.37;;;;;;;-6.04;84.59;146177.02;1674720;85;21039;-59
2022/01/12 04:32:46;;;;;;;9.03;3.33;;;;;;;-6.10;83.25;146162.91;1675003;84;21183;-60
2022/01/12 04:35:15;;;;;;;12.13;4.80;;;;;;;-6.23;81.33;146130.92;1674461;84;20989;-60
2022/01/12 04:37:41;;;;;;;11.43;5.30;;;;;;;-6.34;81.42;146104.03;1697272;84;21144;-60
2022/01/12 04:40:10;;;;;;;8.80;3.53;;;;;;;-6.46;81.17;146073.34;1707063;82;20971;-60
2022/01/12 04:42:37;;;;;;;17.80;5.10;;;;;;;-6.60;81.59;146037.50;1707116;84;21042;-59
2022/01/12 04:45:18;;;;;;;6.77;2.97;;;;;;;-6.73;82.33;146006.81;1707187;84;21123;-60
2022/01/12 04:47:57;;;;;;;13.87;4.83;;;;;;;-6.81;82.58;145986.31;1684242;84;21051;-60
2022/01/12 04:50:08;;;;;;;;;;;;;;;-6.93;83.40;145958.19;1673407;85;21016;-60
2022/01/12 04:52:35;;;;;;;9.37;3.93;;;;;;;-6.97;83.69;145947.92;1674597;85;20493;-61
2022/01/12 04:55:02;;;;;;;14.97;5.17;;;;;;;-7.05;84.29;145928.78;1675028;84;21020;-60
2022/01/12 04:57:29;;;;;;;12.93;5.73;;;;;;;-7.12;84.79;145910.83;1681405;84;21935;-60
2022/01/12 05:00:12;;;;;;;15.13;6.67;;;;;;;-7.16;85.15;145899.36;1674741;84;21506;-61
2022/01/12 05:07:58;;;;;;;9.83;4.27;;;;;;;-7.25;86.11;145878.86;1660739;84;21571;-61
2022/01/12 05:12:52;;;;;;;;;;;;;;;-7.32;86.27;145859.67;1669089;84;21061;-59
2022/01/12 05:15:25;;;;;;;18.70;5.37;;;;;;;-7.36;86.32;145852.00;1695548;82;20172;-59
2022/01/12 05:17:46;;;;;;;14.13;4.83;;;;;;;-7.39;86.22;145843.09;1673319;85;21042;-60
2022/01/12 05:20:13;;;;;;;14.83;5.73;;;;;;;-7.43;86.04;145832.81;1684368;84;21459;-60
2022/01/12 05:22:40;;;;;;;11.50;4.40;;;;;;;-7.47;86.13;145823.91;1745538;82;21107;-61
2022/01/12 05:25:07;;;;;;;13.63;6.60;;;;;;;-7.52;86.24;145812.38;1681615;83;20996;-60
2022/01/12 05:27:36;;;;;;;12.90;5.37;;;;;;;-7.55;86.25;145804.72;1681130;85;21034;-60
2022/01/12 05:30:04;;;;;;;10.73;4.90;;;;;;;-7.58;86.41;145797.05;1716023;83;21013;-61
2022/01/12 05:32:31;;;;;;;11.67;5.07;;;;;;;-7.62;86.86;145786.83;1715395;83;21139;-61
2022/01/12 05:35:03;;;;;;;10.43;5.23;;;;;;;-7.65;86.99;145780.42;1716928;82;21195;-61
2022/01/12 05:37:30;;;;;;;13.67;5.37;;;;;;;-7.67;87.17;145774.00;1718453;83;20989;-61
2022/01/12 05:40:00;;;;;;;11.47;4.87;;;;;;;-7.72;87.20;145761.23;1719361;83;21105;-60
2022/01/12 05:42:31;;;;;;;10.63;4.87;;;;;;;-7.77;87.22;145751.02;1718480;83;21038;-62
2022/01/12 05:44:58;;;;;;;11.33;4.50;;;;;;;-7.80;87.52;145743.36;1690833;83;20927;-61
2022/01/12 05:49:33;;;;;;;11.10;5.03;;;;;;;-7.83;87.66;145735.69;1718283;83;21871;-60
2022/01/12 05:50:00;;;;;;;11.63;5.40;;;;;;;-7.86;87.63;145727.98;1715080;83;20918;-60
2022/01/12 05:52:27;;;;;;;11.20;5.23;;;;;;;-7.88;87.90;145722.88;1718662;83;21044;-61
2022/01/12 05:54:55;;;;;;;12.47;4.90;;;;;;;-7.91;88.02;145715.22;1689610;83;38290;-63
2022/01/12 05:57:22;;;;;;;13.53;5.33;;;;;;;-7.92;88.38;145712.66;1719009;82;21128;-60
2022/01/12 05:59:49;;;;;;;17.00;6.93;;;;;;;-7.93;88.79;145710.09;1718958;83;21487;-60
2022/01/12 06:02:19;;;;;;;31.97;12.90;;;;;;;-7.91;89.06;145715.22;1718474;83;21108;-61
2022/01/12 06:04:47;;;;;;;12.10;5.60;;;;;;;-7.89;89.00;145720.31;1721475;82;21258;-62
2022/01/12 06:07:16;;;;;;;22.70;9.47;;;;;;;-7.91;88.24;145715.22;1748543;81;21032;-61
2022/01/12 06:09:43;;;;;;;22.80;7.80;;;;;;;-7.98;88.01;145697.34;1748645;81;21572;-68
2022/01/12 06:12:13;;;;;;;10.80;4.50;;;;;;;-8.07;87.82;145676.91;1748950;82;21366;-66
2022/01/12 06:14:42;;;;;;;16.90;5.90;;;;;;;-8.14;87.36;145658.98;1746783;81;21119;-61
2022/01/12 06:17:10;;;;;;;11.20;5.00;;;;;;;-8.23;87.64;145637.25;1718935;83;20947;-59
2022/01/12 06:19:37;;;;;;;12.33;4.60;;;;;;;-8.28;87.71;145624.48;1720098;82;21197;-60
2022/01/12 06:22:06;;;;;;;12.80;4.60;;;;;;;-8.31;88.13;145616.83;1730532;82;20958;-60
2022/01/12 06:24:33;;;;;;;10.37;4.77;;;;;;;-8.31;88.42;145615.53;1730092;82;21471;-60
2022/01/12 06:27:00;;;;;;;13.17;5.57;;;;;;;-8.30;88.71;145618.08;1728511;82;21043;-60
2022/01/12 06:29:39;;;;;;;12.50;5.37;;;;;;;-8.27;88.83;145625.78;1694588;84;21342;-61
2022/01/12 06:31:56;;;;;;;9.87;5.13;;;;;;;-8.24;88.93;145633.44;1689059;83;21072;-61
2022/01/12 06:34:23;;;;;;;19.60;5.70;;;;;;;-8.20;88.86;145643.66;1734829;81;20974;-60
2022/01/12 06:36:50;;;;;;;13.97;4.83;;;;;;;-8.19;88.38;145646.22;1721708;80;21539;-60
2022/01/12 06:39:17;;;;;;;9.90;4.53;;;;;;;-8.18;88.34;145647.47;1720916;83;21069;-60
2022/01/12 06:41:44;;;;;;;18.77;4.77;;;;;;;-8.17;88.36;145651.31;1721903;81;21112;-65
2022/01/12 06:44:14;;;;;;;10.43;4.80;;;;;;;-8.16;88.28;145653.88;1738596;81;20985;-66
2022/01/12 06:46:43;;;;;;;16.33;5.60;;;;;;;-8.16;87.95;145652.62;1716568;82;21072;-66
2022/01/12 06:49:11;;;;;;;13.13;5.73;;;;;;;-8.16;88.44;145653.88;1722176;82;21166;-65
2022/01/12 06:51:39;;;;;;;17.83;5.70;;;;;;;-8.12;88.79;145664.09;1723815;81;21086;-66
2022/01/12 06:54:07;;;;;;;11.20;4.33;;;;;;;-8.06;88.78;145679.45;1707099;82;20976;-60
2022/01/12 06:56:34;;;;;;;14.90;6.13;;;;;;;-8.03;87.83;145684.56;1705880;82;21097;-60
2022/01/12 06:59:03;;;;;;;13.80;4.97;;;;;;;-8.06;87.70;145679.45;1701414;82;20997;-66
2022/01/12 07:01:30;;;;;;;8.50;4.80;;;;;;;-8.10;86.96;145669.19;1698848;82;22088;-66
2022/01/12 07:03:57;;;;;;;20.40;5.30;;;;;;;-8.13;87.31;145661.53;1701762;82;21021;-67
2022/01/12 07:06:24;;;;;;;10.40;4.23;;;;;;;-8.10;88.06;145667.94;1705050;83;21602;-60
2022/01/12 07:08:51;;;;;;;8.40;3.40;;;;;;;-8.09;87.46;145671.75;1757120;80;21080;-60
2022/01/12 07:11:23;;;;;;;11.00;5.37;;;;;;;-8.10;87.12;145669.19;1751783;80;21803;-60
2022/01/12 07:13:52;;;;;;;20.53;7.07;;;;;;;-8.12;86.75;145662.83;1702483;81;21519;-61
2022/01/12 07:16:21;;;;;;;8.97;4.40;;;;;;;-8.13;86.64;145661.53;1691442;82;20973;-59
2022/01/12 07:18:48;;;;;;;9.20;4.23;;;;;;;-8.12;86.79;145664.09;1726894;81;21819;-60
2022/01/12 07:21:15;;;;;;;14.77;5.37;;;;;;;-8.13;86.42;145661.53;1730965;81;21071;-59
2022/01/12 07:23:42;;;;;;;15.13;4.27;;;;;;;-8.14;86.25;145657.72;1761218;80;21068;-60
2022/01/12 07:28:44;;;;;;;8.97;4.40;;;;;;;-8.21;85.74;145641.09;1708242;82;21100;-61
2022/01/12 07:31:12;;;;;;;13.30;5.13;;;;;;;-8.27;85.33;145625.78;1739650;81;21540;-61
2022/01/12 07:33:40;;;;;;;13.37;4.43;;;;;;;-8.28;86.29;145623.23;1738203;81;21129;-60
2022/01/12 07:36:07;;;;;;;17.83;5.10;;;;;;;-8.27;87.10;145627.03;1713952;82;22460;-61
2022/01/12 07:38:34;;;;;;;12.33;4.67;;;;;;;-8.24;86.46;145634.69;1762841;79;21604;-60
2022/01/12 07:41:00;;;;;;;20.10;6.17;;;;;;;-8.24;86.39;145633.44;1763495;81;21059;-61
2022/01/12 07:43:27;;;;;;;19.00;6.03;;;;;;;-8.18;85.96;145648.77;1762500;79;21124;-65
2022/01/12 07:45:54;;;;;;;12.80;5.37;;;;;;;-8.17;85.79;145651.31;1762200;79;21199;-65
2022/01/12 07:48:21;;;;;;;10.40;4.50;;;;;;;-8.14;86.34;145658.98;1763597;79;21091;-66
2022/01/12 07:50:50;;;;;;;11.07;5.07;;;;;;;-8.06;86.73;145678.16;1761874;79;21558;-65
2022/01/12 07:53:17;;;;;;;15.03;5.23;;;;;;;-8.00;86.67;145692.22;1763500;80;21086;-65
2022/01/12 07:55:44;;;;;;;11.27;4.77;;;;;;;-8.06;85.54;145679.45;1758721;79;21106;-66
2022/01/12 07:58:11;;;;;;;13.43;4.97;;;;;;;-8.09;85.59;145671.75;1762287;79;21052;-66
2022/01/12 08:00:38;;;;;;;14.43;5.63;;;;;;;-8.10;85.56;145667.94;1760033;79;21509;-66
2022/01/12 08:03:05;;;;;;;10.17;4.17;;;;;;;-8.09;85.83;145671.75;1759135;79;21131;-66
2022/01/12 08:05:32;;;;;;;9.37;4.07;;;;;;;-8.09;85.75;145671.75;1760132;80;21565;-66
2022/01/12 08:07:59;;;;;;;12.37;5.30;;;;;;;-8.12;84.74;145664.09;1736939;79;21070;-66
2022/01/12 08:10:26;;;;;;;11.07;5.40;;;;;;;-8.12;84.88;145664.09;1762137;79;21063;-65
2022/01/12 08:12:52;;;;;;;13.73;5.23;;;;;;;-8.11;85.68;145666.64;1763330;79;21083;-65
2022/01/12 08:15:21;;;;;;;11.30;4.07;;;;;;;-8.07;86.21;145676.91;1765765;79;21059;-67
2022/01/12 08:17:48;;;;;;;12.27;3.87;;;;;;;-8.06;85.25;145679.45;1757340;80;21083;-65
2022/01/12 08:20:18;;;;;;;9.63;4.90;;;;;;;-8.09;84.53;145670.50;1761451;79;21132;-60
2022/01/12 08:22:45;;;;;;;8.30;3.90;;;;;;;-8.13;86.18;145661.53;1747273;80;21076;-61
2022/01/12 08:25:12;;;;;;;8.27;4.53;;;;;;;-8.08;87.11;145673.05;1749013;80;21076;-61
2022/01/12 08:27:40;;;;;;;10.00;4.53;;;;;;;-8.08;85.77;145673.05;1744842;80;21772;-67
2022/01/12 08:30:15;;;;;;;9.63;4.33;;;;;;;-8.14;85.13;145658.98;1751845;80;20977;-66
2022/01/12 08:32:37;;;;;;;17.70;5.80;;;;;;;-8.19;85.44;145646.22;1746781;80;21071;-66
2022/01/12 08:35:06;;;;;;;14.00;5.30;;;;;;;-8.18;85.30;145648.77;1748573;80;21091;-66
2022/01/12 08:37:33;;;;;;;11.70;4.77;;;;;;;-8.15;85.21;145655.17;1748106;80;21471;-67
2022/01/12 08:40:00;;;;;;;9.83;4.73;;;;;;;-8.13;84.54;145660.28;1748060;80;21457;-66
2022/01/12 08:42:27;;;;;;;11.80;4.73;;;;;;;-8.08;84.29;145674.30;1751327;80;21102;-67
2022/01/12 08:44:59;;;;;;;9.37;4.07;;;;;;;-8.03;83.81;145685.81;1745744;80;21766;-66
2022/01/12 08:47:24;;;;;;;15.77;4.93;;;;;;;-8.00;82.92;145692.22;1752776;80;20998;-67
2022/01/12 08:49:53;;;;;;;6.43;2.97;;;;;;;-7.96;83.14;145702.44;1756257;80;22358;-68
2022/01/12 08:52:22;;;;;;;14.47;4.30;;;;;;;-7.90;81.64;145717.77;1750311;80;21585;-67
2022/01/12 08:54:50;;;;;;;8.57;3.23;;;;;;;-7.87;81.16;145724.17;1748071;80;21699;-67
2022/01/12 08:57:17;;;;;;;10.07;4.40;;;;;;;-7.86;79.97;145727.98;1749102;80;21083;-61
2022/01/12 08:59:44;;;;;;;14.07;4.97;;;;;;;-7.83;80.13;145735.69;1746952;80;21171;-61
2022/01/12 09:02:13;;;;;;;21.33;7.83;;;;;;;-7.74;80.48;145756.13;1743806;80;21118;-67
2022/01/12 09:04:42;;;;;;;9.47;3.73;;;;;;;-7.65;80.20;145779.11;1748946;80;21610;-67
2022/01/12 09:07:12;;;;;;;10.13;4.40;;;;;;;-7.59;80.31;145794.50;1715858;80;21302;-68
2022/01/12 09:09:40;;;;;;;11.77;4.83;;;;;;;-7.57;79.50;145799.59;1752509;80;21456;-66
2022/01/12 09:12:11;;;;;;;12.33;3.93;;;;;;;-7.51;79.47;145814.94;1755125;80;21028;-67
2022/01/12 09:14:38;;;;;;;9.93;3.90;;;;;;;-7.41;78.83;145837.92;1755398;80;21066;-68
2022/01/12 09:17:15;;;;;;;9.43;3.90;;;;;;;-7.32;78.17;145859.67;1751809;80;21702;-60
2022/01/12 09:19:42;;;;;;;13.57;4.50;;;;;;;-7.29;77.55;145868.64;1744978;80;22309;-61
2022/01/12 09:22:09;;;;;;;11.17;3.80;;;;;;;-7.25;77.67;145878.86;1753488;80;21553;-60
2022/01/12 09:24:36;;;;;;;8.87;3.50;;;;;;;-7.20;77.73;145891.64;1755189;80;21136;-61
2022/01/12 09:27:04;;;;;;;9.00;3.77;;;;;;;-7.11;77.82;145912.13;1761134;80;20980;-67
2022/01/12 09:29:31;;;;;;;14.27;4.07;;;;;;;-7.07;77.10;145922.36;1759982;80;21932;-61
2022/01/12 09:31:57;;;;;;;15.40;6.27;;;;;;;-7.04;77.62;145930.03;1754806;80;21435;-61
2022/01/12 09:34:24;;;;;;;7.70;3.03;;;;;;;-7.00;77.90;145940.25;1755561;80;21099;-61
2022/01/12 09:36:51;;;;;;;10.47;3.93;;;;;;;-6.97;77.60;145947.92;1716684;81;21074;-61
2022/01/12 09:39:18;;;;;;;10.70;3.50;;;;;;;-6.95;77.49;145951.78;1711857;82;21323;-61
2022/01/12 09:41:44;;;;;;;8.47;3.27;;;;;;;-6.95;77.45;145953.08;1710501;82;21766;-61
2022/01/12 09:44:12;;;;;;;9.33;3.73;;;;;;;-6.92;77.48;145960.75;1716346;82;21440;-61
2022/01/12 09:46:39;;;;;;;10.47;3.57;;;;;;;-6.86;77.34;145973.53;1715467;82;21616;-61
2022/01/12 09:49:06;;;;;;;7.03;3.37;;;;;;;-6.81;77.34;145986.31;1711783;82;21475;-60
2022/01/12 09:51:35;;;;;;;8.00;2.57;;;;;;;-6.74;76.98;146004.25;1712471;82;21044;-62
2022/01/12 09:54:02;;;;;;;12.37;4.47;;;;;;;-6.71;76.70;146011.94;1700447;82;21124;-61
2022/01/12 09:56:30;;;;;;;13.53;4.33;;;;;;;-6.69;77.46;146017.05;1707871;82;21611;-61
2022/01/12 09:59:00;;;;;;;12.30;3.80;;;;;;;-6.67;77.85;146022.16;1709731;82;21561;-61
2022/01/12 10:01:35;;;;;;;7.27;3.57;;;;;;;-6.68;77.47;146019.59;1713405;82;21608;-65
2022/01/12 10:04:12;;;;;;;11.23;3.50;;;;;;;-6.69;77.87;146017.05;1713226;82;20991;-62
2022/01/12 10:06:41;;;;;;;15.37;5.30;;;;;;;-6.71;77.88;146011.94;1700518;82;21168;-62
2022/01/12 10:09:09;;;;;;;7.23;3.10;;;;;;;-6.67;78.57;146022.16;1704265;82;21139;-62
2022/01/12 10:12:07;;;;;;;19.00;6.93;;;;;;;-6.60;78.26;146037.50;1702984;82;21568;-61
2022/01/12 10:14:55;;;;;;;14.10;4.00;;;;;;;-6.56;79.02;146049.03;1711368;82;21161;-61
2022/01/12 10:17:38;;;;;;;8.40;2.80;;;;;;;-6.49;77.89;146065.67;1751257;80;21795;-62
2022/01/12 10:20:12;;;;;;;11.40;3.77;;;;;;;-6.43;77.65;146079.72;1750042;80;21537;-61
2022/01/12 10:22:46;;;;;;;15.25;5.17;;;;;;;-6.45;77.44;146075.91;1749237;80;21079;-62
2022/01/12 10:25:19;;;;;;;19.12;7.72;;;;;;;-6.46;77.38;146073.34;1750459;80;21087;-60
2022/01/12 10:27:46;;;;;;;6.30;3.33;;;;;;;-6.47;76.59;146072.05;1750768;80;21120;-61
2022/01/12 10:30:22;;;;;;;5.57;2.80;;;;;;;-6.49;75.75;146066.94;1720539;80;21144;-59
2022/01/12 10:33:03;;;;;;;4.10;2.03;;;;;;;-6.51;75.96;146060.56;1745751;80;21134;-60
2022/01/12 10:35:30;;;;;;;9.63;4.50;;;;;;;-6.50;77.08;146064.37;1708575;82;21116;-60
2022/01/12 10:38:14;;;;;;;9.33;2.87;;;;;;;-6.46;77.66;146073.34;1702564;82;21238;-59
2022/01/12 10:40:55;;;;;;;8.07;2.70;;;;;;;-6.43;76.54;146081.02;1703759;82;22263;-61
2022/01/12 10:43:43;;;;;;;14.10;3.90;;;;;;;-6.46;76.17;146073.34;1702511;82;21217;-64
2022/01/12 10:46:14;;;;;;;9.83;3.23;;;;;;;-6.45;76.93;146075.91;1700183;82;21146;-65
2022/01/12 10:48:55;;;;;;;35.43;11.23;;;;;;;-6.38;77.11;146093.81;1700247;82;21154;-66
2022/01/12 10:51:27;;;;;;;46.40;14.13;;;;;;;-6.33;77.42;146106.59;1712375;81;21066;-67
2022/01/12 10:54:00;;;;;;;24.47;6.50;;;;;;;-6.28;76.43;146116.88;1679951;83;21067;-66
2022/01/12 10:56:27;;;;;;;10.27;3.40;;;;;;;-6.26;76.47;146121.98;1704031;82;21497;-66
2022/01/12 10:58:56;;;;;;;5.07;2.17;;;;;;;-6.19;76.29;146139.89;1707569;81;21477;-66
2022/01/12 11:01:26;;;;;;;7.93;2.87;;;;;;;-6.13;74.42;146153.98;1706170;82;22602;-66
2022/01/12 11:03:53;;;;;;;6.20;3.20;;;;;;;-6.14;74.31;146152.69;1709467;82;21086;-64
2022/01/12 11:06:20;;;;;;;9.37;3.30;;;;;;;-6.16;74.47;146147.56;1708338;82;21114;-65
2022/01/12 11:08:49;;;;;;;10.93;3.03;;;;;;;-6.15;74.15;146148.88;1720983;82;21526;-64
2022/01/12 11:11:17;;;;;;;7.93;2.40;;;;;;;-6.10;74.33;146162.91;1708748;82;21430;-66
2022/01/12 11:13:45;;;;;;;8.10;3.40;;;;;;;-6.09;74.22;146165.47;1704406;82;21392;-64
2022/01/12 11:16:14;;;;;;;5.93;2.43;;;;;;;-6.08;74.30;146168.08;1726308;80;21552;-59
2022/01/12 11:18:41;;;;;;;7.70;3.00;;;;;;;-6.06;73.28;146171.91;1753490;80;21089;-60
2022/01/12 11:21:35;;;;;;;8.03;2.70;;;;;;;-6.06;72.37;146173.20;1721902;80;21075;-61
2022/01/12 11:24:04;;;;;;;10.63;2.70;;;;;;;-6.07;71.59;146170.64;1750911;80;21546;-60
2022/01/12 11:26:31;;;;;;;6.80;2.67;;;;;;;-6.14;71.22;146151.44;1749223;80;21045;-60
2022/01/12 11:28:59;;;;;;;9.73;3.77;;;;;;;-6.20;71.43;146137.34;1750905;80;21053;-60
2022/01/12 11:31:29;;;;;;;7.20;3.17;;;;;;;-6.18;71.75;146142.45;1754908;80;21139;-60
2022/01/12 11:33:56;;;;;;;8.30;3.00;;;;;;;-6.15;71.58;146150.13;1752840;80;21050;-60
2022/01/12 11:36:37;;;;;;;5.10;2.23;;;;;;;-6.10;71.85;146161.66;1750559;80;22023;-60
2022/01/12 11:39:17;;;;;;;8.60;3.03;;;;;;;-6.10;70.75;146162.91;1750460;80;21059;-61
2022/01/12 11:41:47;;;;;;;16.17;3.17;;;;;;;-6.09;71.06;146165.47;1747925;80;21400;-60
2022/01/12 11:44:21;;;;;;;11.47;3.47;;;;;;;-6.07;71.16;146170.64;1752564;80;21094;-60
2022/01/12 11:46:49;;;;;;;9.80;4.17;;;;;;;-6.07;71.59;146169.34;1746488;80;21448;-66
2022/01/12 11:49:36;;;;;;;7.77;3.30;;;;;;;-6.07;72.13;146169.34;1747859;80;21884;-60
2022/01/12 11:52:16;;;;;;;8.07;2.97;;;;;;;-6.05;71.23;146175.75;1752982;80;21459;-65
2022/01/12 11:54:45;;;;;;;9.07;3.17;;;;;;;-6.06;71.49;146173.20;1729031;80;21471;-64
2022/01/12 11:57:16;;;;;;;8.10;2.83;;;;;;;-6.05;70.96;146174.45;1751437;80;21046;-59
2022/01/12 11:59:57;;;;;;;10.10;3.40;;;;;;;-6.06;71.11;146171.91;1750023;80;21128;-60
2022/01/12 12:02:36;;;;;;;9.97;2.63;;;;;;;-6.07;70.83;146170.64;1748290;80;21167;-60
2022/01/12 12:05:15;;;;;;;24.70;9.50;;;;;;;-6.14;71.01;146152.69;1738242;80;21081;-60
2022/01/12 12:07:45;;;;;;;15.83;2.97;;;;;;;-6.17;71.42;146145.02;1749673;80;21038;-60
2022/01/12 12:10:16;;;;;;;6.70;3.20;;;;;;;-6.15;72.46;146148.88;1749845;80;21135;-60
2022/01/12 12:12:45;;;;;;;8.33;3.03;;;;;;;-6.13;71.63;146155.25;1751369;80;20993;-60
2022/01/12 12:15:13;;;;;;;6.27;3.10;;;;;;;-6.09;71.74;146165.47;1752855;80;21557;-60
2022/01/12 12:17:41;;;;;;;10.00;2.83;;;;;;;-6.05;71.76;146174.45;1755670;80;21088;-65
2022/01/12 12:20:12;;;;;;;24.47;9.13;;;;;;;-6.03;71.24;146178.31;1719351;81;21122;-66
2022/01/12 12:22:40;;;;;;;11.33;3.90;;;;;;;-6.05;71.37;146175.75;1693968;83;20964;-65
2022/01/12 12:25:14;;;;;;;11.87;3.80;;;;;;;-6.08;71.09;146166.78;1706726;82;21516;-65
2022/01/12 12:27:45;;;;;;;14.70;4.23;;;;;;;-6.09;71.67;146164.22;1707149;82;21095;-59
2022/01/12 12:30:15;;;;;;;8.73;3.20;;;;;;;-6.08;72.33;146168.08;1707182;82;21068;-60
2022/01/12 12:32:46;;;;;;;11.63;3.63;;;;;;;-6.07;72.01;146170.64;1705942;82;21106;-59
2022/01/12 12:35:22;;;;;;;11.23;3.73;;;;;;;-6.03;72.19;146178.31;1751200;80;21105;-60
2022/01/12 12:38:05;;;;;;;12.63;3.30;;;;;;;-5.98;71.92;146191.06;1749839;80;21116;-60
2022/01/12 12:40:41;;;;;;;14.17;3.07;;;;;;;-5.98;70.70;146191.06;1749054;80;21307;-59
2022/01/12 12:43:23;;;;;;;12.17;3.67;;;;;;;-6.00;71.38;146187.20;1751617;80;21065;-60
2022/01/12 12:45:57;;;;;;;10.57;3.53;;;;;;;-5.97;70.86;146193.63;1750772;80;21108;-60
2022/01/12 12:48:28;;;;;;;8.77;3.70;;;;;;;-5.97;71.06;146193.63;1752103;80;21078;-60
2022/01/12 12:51:08;;;;;;;8.87;3.17;;;;;;;-5.99;70.94;146189.75;1749455;80;21075;-61
2022/01/12 12:53:42;;;;;;;17.03;4.00;;;;;;;-6.00;71.11;146185.94;1748569;80;21116;-60
2022/01/12 12:56:12;;;;;;;8.70;2.47;;;;;;;-6.03;70.89;146179.56;1746917;80;21511;-60
2022/01/12 12:58:40;;;;;;;13.57;3.47;;;;;;;-6.06;71.08;146171.91;1751601;80;21759;-60
2022/01/12 13:01:09;;;;;;;11.80;3.53;;;;;;;-6.07;71.17;146169.34;1750905;80;21569;-60
2022/01/12 13:03:37;;;;;;;12.33;3.30;;;;;;;-6.07;71.58;146170.64;1750082;80;21055;-60
2022/01/12 13:06:04;;;;;;;14.00;3.33;;;;;;;-6.11;71.35;146160.36;1748437;80;21804;-60